Time;durP1;ratioP1;P1;durP2;ratioP2;P2;SDS_P1;SDS_P2;PMS_P1;PMS_P2;Temp;Humidity;BMP_temperature;BMP_pressure;BME280_temperature;BME280_humidity;BME280_pressure;Samples;Min_cycle;Max_cycle;Signal;HPM_P1;HPM_P2
2020/12/24 00:01:20;;;;;;;16.23;11.60;;;;;;;8.92;98.96;100286.59;5067351;28;20032;-84
2020/12/24 00:03:45;;;;;;;20.27;11.75;;;;;;;9.10;99.06;100317.19;5058014;28;20114;-84
2020/12/24 00:06:11;;;;;;;17.77;11.38;;;;;;;8.95;98.80;100291.69;5045568;28;20030;-84
2020/12/24 00:08:36;;;;;;;19.13;11.52;;;;;;;9.26;98.83;100349.72;5064423;28;20025;-84
2020/12/24 00:11:03;;;;;;;17.88;11.57;;;;;;;9.03;99.10;100302.59;5051404;28;20028;-84
2020/12/24 00:13:29;;;;;;;16.30;11.38;;;;;;;8.98;98.76;100287.91;5044741;28;20024;-84
2020/12/24 00:15:54;;;;;;;17.02;11.25;;;;;;;9.29;98.94;100337.94;5045675;28;20028;-84
2020/12/24 00:18:20;;;;;;;19.55;10.90;;;;;;;8.96;98.60;100285.38;5046643;28;20028;-84
2020/12/24 00:20:46;;;;;;;15.75;10.35;;;;;;;9.06;98.59;100293.47;5059127;28;20029;-84
2020/12/24 00:23:12;;;;;;;15.45;10.23;;;;;;;8.84;98.79;100256.09;5051584;28;20025;-84
2020/12/24 00:25:38;;;;;;;17.33;10.60;;;;;;;9.28;98.62;100328.19;5045803;28;20028;-83
2020/12/24 00:28:03;;;;;;;16.77;10.50;;;;;;;9.12;98.30;100290.28;5065208;28;20055;-84
2020/12/24 00:30:29;;;;;;;18.65;10.85;;;;;;;9.00;98.66;100267.25;5046111;28;20024;-84
2020/12/24 00:32:54;;;;;;;14.50;10.35;;;;;;;9.11;98.36;100288.59;5044599;28;20036;-84
2020/12/24 00:35:20;;;;;;;14.43;9.73;;;;;;;9.20;98.33;100306.59;5067281;28;20115;-84
2020/12/24 00:37:45;;;;;;;14.55;9.70;;;;;;;9.20;98.29;100312.75;5063924;28;20041;-84
2020/12/24 00:40:10;;;;;;;16.77;9.63;;;;;;;9.08;98.23;100297.75;5041808;28;20025;-83
2020/12/24 00:42:36;;;;;;;14.95;10.57;;;;;;;8.36;98.13;100169.22;5042339;28;20029;-84
2020/12/24 00:45:02;;;;;;;16.13;10.48;;;;;;;9.08;97.80;100291.53;5061722;28;20503;-84
2020/12/24 00:47:27;;;;;;;15.25;10.20;;;;;;;8.69;98.20;100228.78;5054655;28;20060;-84
2020/12/24 00:49:54;;;;;;;14.45;10.05;;;;;;;9.13;98.11;100311.56;5065062;28;20029;-84
2020/12/24 00:52:19;;;;;;;14.70;10.07;;;;;;;9.25;98.24;100315.94;5043927;28;20105;-84
2020/12/24 00:54:45;;;;;;;12.88;9.07;;;;;;;9.12;98.18;100303.69;5056865;28;20515;-84
2020/12/24 00:57:10;;;;;;;14.18;10.45;;;;;;;9.25;98.11;100325.78;5041454;28;20040;-84
2020/12/24 00:59:36;;;;;;;15.65;9.48;;;;;;;8.92;97.99;100275.03;5045224;28;20025;-84
2020/12/24 01:02:01;;;;;;;13.93;9.93;;;;;;;9.23;97.93;100330.41;5048794;28;20021;-83
2020/12/24 01:04:27;;;;;;;15.27;10.15;;;;;;;8.97;97.78;100286.22;5061598;28;20025;-84
2020/12/24 01:06:52;;;;;;;13.27;9.43;;;;;;;9.08;98.12;100311.13;5041541;28;20542;-83
2020/12/24 01:09:18;;;;;;;14.45;9.90;;;;;;;9.08;97.93;100313.78;5060274;28;20129;-84
2020/12/24 01:11:43;;;;;;;15.15;10.13;;;;;;;9.00;97.70;100312.72;5051433;28;20078;-84
2020/12/24 01:14:09;;;;;;;16.25;10.32;;;;;;;8.98;97.87;100296.81;5038617;28;20041;-84
2020/12/24 01:16:34;;;;;;;13.68;9.50;;;;;;;9.15;98.04;100331.03;5040875;28;20063;-84
2020/12/24 01:19:00;;;;;;;15.35;10.45;;;;;;;8.30;97.75;100183.06;5058702;28;20028;-84
2020/12/24 01:21:26;;;;;;;17.25;10.27;;;;;;;9.13;98.36;100316.94;5055970;28;20032;-84
2020/12/24 01:23:52;;;;;;;13.43;9.27;;;;;;;9.00;98.28;100288.66;5049019;28;20025;-84
2020/12/24 01:26:18;;;;;;;18.17;10.07;;;;;;;8.94;98.51;100279.28;5044846;28;20037;-84
2020/12/24 01:28:43;;;;;;;14.02;9.82;;;;;;;8.69;98.05;100230.59;5041472;28;20124;-84
2020/12/24 01:31:09;;;;;;;15.00;9.57;;;;;;;8.74;98.41;100239.94;5061555;28;20074;-84
2020/12/24 01:33:34;;;;;;;17.67;10.70;;;;;;;8.75;98.52;100236.31;5060239;28;20029;-84
2020/12/24 01:36:00;;;;;;;13.52;9.50;;;;;;;8.98;98.10;100280.75;5049610;28;20061;-85
2020/12/24 01:38:25;;;;;;;13.75;9.35;;;;;;;8.95;98.34;100281.00;5051634;28;20067;-83
2020/12/24 01:41:02;;;;;;;16.35;10.02;;;;;;;9.05;98.43;100289.09;5075279;28;20064;-84
2020/12/24 01:43:28;;;;;;;12.80;8.80;;;;;;;8.99;98.04;100279.75;5046637;28;20037;-84
2020/12/24 01:45:55;;;;;;;13.95;8.75;;;;;;;9.00;97.94;100275.28;5064529;28;20404;-84
2020/12/24 01:48:21;;;;;;;16.25;10.27;;;;;;;8.81;98.02;100256.34;5067043;28;20036;-83
2020/12/24 01:50:46;;;;;;;14.88;9.57;;;;;;;8.18;98.07;100162.63;5065250;28;20021;-84
2020/12/24 01:53:21;;;;;;;14.90;9.57;;;;;;;8.95;98.41;100280.13;5039664;28;20052;-84
2020/12/24 01:55:48;;;;;;;14.07;9.38;;;;;;;9.08;98.24;100299.56;5047003;28;20059;-84
2020/12/24 01:58:14;;;;;;;11.98;8.68;;;;;;;8.80;98.41;100259.97;5049261;28;20571;-84
2020/12/24 02:00:40;;;;;;;12.48;8.75;;;;;;;8.01;98.29;100115.94;5050834;28;20106;-83
2020/12/24 02:03:06;;;;;;;12.38;8.70;;;;;;;8.76;98.51;100243.34;5047126;28;20029;-84
2020/12/24 02:05:31;;;;;;;13.40;8.23;;;;;;;8.83;98.10;100251.72;5051655;28;20121;-84
2020/12/24 02:07:57;;;;;;;12.20;8.48;;;;;;;8.97;98.03;100270.19;5043029;28;20060;-84
2020/12/24 02:10:23;;;;;;;13.18;8.15;;;;;;;8.92;98.38;100262.53;5047390;28;20031;-84
2020/12/24 02:12:49;;;;;;;12.32;8.57;;;;;;;8.94;98.30;100262.41;5051216;28;20035;-84
2020/12/24 02:15:14;;;;;;;12.77;8.77;;;;;;;8.99;98.10;100266.38;5063799;28;20033;-84
2020/12/24 02:17:40;;;;;;;12.65;8.57;;;;;;;9.09;97.94;100285.19;5045250;28;20060;-83
2020/12/24 02:20:06;;;;;;;12.15;8.07;;;;;;;9.06;97.75;100280.97;5049488;28;20476;-84
2020/12/24 02:22:31;;;;;;;9.55;7.97;;;;;;;9.00;98.22;100261.91;5054004;28;20506;-83
2020/12/24 02:24:57;;;;;;;9.85;7.82;;;;;;;8.92;98.14;100257.19;5065619;28;20029;-84
2020/12/24 02:27:22;;;;;;;11.60;7.90;;;;;;;8.76;98.19;100227.31;5046673;28;20028;-84
2020/12/24 02:29:48;;;;;;;10.88;7.65;;;;;;;9.05;98.29;100273.06;5045960;28;20048;-84
2020/12/24 02:32:13;;;;;;;11.18;8.05;;;;;;;8.87;98.47;100240.66;5046644;28;20059;-83
2020/12/24 02:34:39;;;;;;;10.50;6.97;;;;;;;8.95;98.29;100254.25;5046324;28;20036;-84
2020/12/24 02:37:06;;;;;;;11.15;7.28;;;;;;;8.65;98.39;100205.09;5063547;28;20037;-84
2020/12/24 02:39:32;;;;;;;10.95;7.70;;;;;;;8.97;98.27;100252.28;5061978;28;20419;-84
2020/12/24 02:41:57;;;;;;;10.73;7.63;;;;;;;9.10;98.33;100273.53;5046226;28;20031;-84
2020/12/24 02:44:22;;;;;;;10.93;7.70;;;;;;;8.75;98.23;100209.59;5043746;28;20025;-84
2020/12/24 02:46:48;;;;;;;10.45;7.68;;;;;;;8.66;98.90;100196.09;5041212;28;20480;-84
2020/12/24 02:49:14;;;;;;;10.98;7.75;;;;;;;8.87;98.77;100229.13;5068507;28;20395;-84
2020/12/24 02:51:39;;;;;;;12.48;7.25;;;;;;;8.90;98.82;100234.22;5045390;28;20021;-84
2020/12/24 02:54:05;;;;;;;10.50;7.88;;;;;;;8.55;98.79;100174.75;5042335;28;20035;-84
2020/12/24 02:56:30;;;;;;;11.82;7.93;;;;;;;8.79;98.85;100215.50;5069581;28;20110;-84
2020/12/24 02:58:56;;;;;;;9.57;7.05;;;;;;;8.91;98.81;100226.03;5061444;28;20060;-83
2020/12/24 03:01:21;;;;;;;12.95;7.78;;;;;;;8.86;98.93;100224.72;5067854;28;20033;-84
2020/12/24 03:03:47;;;;;;;9.50;7.35;;;;;;;8.52;99.03;100165.13;5047860;28;20413;-84
2020/12/24 03:06:12;;;;;;;12.00;8.02;;;;;;;8.63;98.72;100186.50;5068560;28;20480;-84
2020/12/24 03:08:38;;;;;;;11.65;7.03;;;;;;;9.03;98.92;100251.78;5061215;28;20020;-83
2020/12/24 03:11:03;;;;;;;12.45;8.23;;;;;;;8.78;99.23;100209.28;5070202;28;20103;-84
2020/12/24 03:13:29;;;;;;;11.07;7.82;;;;;;;8.87;98.93;100223.75;5062337;28;20021;-83
2020/12/24 03:15:54;;;;;;;12.55;7.50;;;;;;;8.89;99.09;100229.81;5045591;28;20066;-84
2020/12/24 03:18:20;;;;;;;11.23;7.68;;;;;;;8.77;99.53;100207.63;5058768;28;20024;-83
2020/12/24 03:20:45;;;;;;;9.70;8.05;;;;;;;8.97;99.56;100238.06;5040764;28;20032;-84
2020/12/24 03:23:10;;;;;;;10.88;8.10;;;;;;;8.66;99.91;100180.06;5046052;28;20043;-84
2020/12/24 03:25:36;;;;;;;11.07;7.57;;;;;;;8.47;99.57;100140.63;5045344;28;20106;-84
2020/12/24 03:28:01;;;;;;;11.82;7.78;;;;;;;8.66;99.28;100162.22;5044227;28;20032;-84
2020/12/24 03:30:27;;;;;;;10.38;7.55;;;;;;;8.97;99.87;100224.72;5039221;28;20025;-84
2020/12/24 03:32:52;;;;;;;13.27;8.38;;;;;;;8.50;99.69;100139.53;5067904;28;20052;-84
2020/12/24 03:35:18;;;;;;;13.30;9.02;;;;;;;8.58;99.39;100147.78;5058153;28;20028;-84
2020/12/24 03:37:44;;;;;;;11.63;8.07;;;;;;;8.93;99.42;100215.22;5051136;28;20043;-84
2020/12/24 03:40:09;;;;;;;14.73;9.02;;;;;;;8.66;99.44;100167.56;5044067;28;20035;-84
2020/12/24 03:42:35;;;;;;;12.90;8.10;;;;;;;8.62;99.12;100162.59;5060502;28;20493;-84
2020/12/24 03:45:00;;;;;;;12.07;8.13;;;;;;;8.71;99.47;100176.03;5045198;28;20068;-84
2020/12/24 03:47:26;;;;;;;11.13;8.00;;;;;;;8.67;99.59;100173.72;5044330;28;20540;-83
2020/12/24 03:49:51;;;;;;;11.45;8.15;;;;;;;8.76;99.73;100191.69;5055111;28;20029;-84
2020/12/24 03:52:17;;;;;;;11.98;9.02;;;;;;;8.60;100.00;100167.19;5058020;28;20025;-84
2020/12/24 03:54:43;;;;;;;13.18;9.68;;;;;;;8.16;99.48;100097.81;5055187;28;20112;-84
2020/12/24 03:57:08;;;;;;;14.02;8.85;;;;;;;8.76;100.00;100197.03;5037130;28;20044;-84
2020/12/24 03:59:34;;;;;;;12.02;8.32;;;;;;;8.17;99.96;100099.50;5038827;28;20551;-84
2020/12/24 04:01:59;;;;;;;12.88;8.95;;;;;;;8.73;100.00;100186.59;5058496;28;20064;-84
2020/12/24 04:04:24;;;;;;;13.07;8.90;;;;;;;8.47;100.00;100145.97;5044304;28;20095;-83
2020/12/24 04:06:50;;;;;;;13.30;9.25;;;;;;;8.72;99.94;100188.44;5054811;28;20100;-84
2020/12/24 04:09:15;;;;;;;13.85;9.05;;;;;;;8.58;100.00;100153.13;5036016;28;20040;-83
2020/12/24 04:11:41;;;;;;;14.35;9.52;;;;;;;8.53;100.00;100150.81;5040056;28;20027;-83
2020/12/24 04:14:06;;;;;;;16.42;10.50;;;;;;;8.58;100.00;100156.63;5059995;28;20037;-84
2020/12/24 04:16:32;;;;;;;16.67;10.85;;;;;;;8.61;99.83;100158.22;5034416;28;20029;-83
2020/12/24 04:18:57;;;;;;;14.98;10.13;;;;;;;8.49;99.82;100137.84;5059301;28;20031;-83
2020/12/24 04:21:35;;;;;;;14.48;9.32;;;;;;;8.58;99.67;100148.59;5059716;28;20588;-84
2020/12/24 04:24:00;;;;;;;15.15;10.00;;;;;;;8.50;99.59;100144.88;5062505;28;20040;-84
2020/12/24 04:26:26;;;;;;;18.88;11.00;;;;;;;8.53;100.00;100150.81;5046909;28;20036;-84
2020/12/24 04:28:51;;;;;;;12.85;9.73;;;;;;;8.58;99.99;100156.63;5044514;28;20020;-84
2020/12/24 04:31:17;;;;;;;16.00;10.52;;;;;;;8.48;100.00;100130.81;5042949;28;20033;-84
2020/12/24 04:33:43;;;;;;;16.27;10.90;;;;;;;8.67;100.00;100157.69;5066729;28;20406;-84
2020/12/24 04:36:11;;;;;;;16.15;10.35;;;;;;;8.50;100.00;100135.03;5043518;28;20391;-84
2020/12/24 04:38:37;;;;;;;16.33;11.57;;;;;;;8.50;100.00;100135.03;5043412;28;20183;-84
2020/12/24 04:41:02;;;;;;;16.20;11.10;;;;;;;8.68;99.78;100160.22;5041745;28;20028;-84
2020/12/24 04:43:28;;;;;;;20.13;11.00;;;;;;;8.53;99.92;100128.59;5039849;28;20108;-84
2020/12/24 04:45:55;;;;;;;19.88;11.35;;;;;;;8.70;100.00;100147.59;5043147;28;20083;-84
2020/12/24 04:48:21;;;;;;;19.08;12.25;;;;;;;8.54;99.99;100116.91;5054562;28;20025;-83
2020/12/24 04:50:53;;;;;;;15.98;11.35;;;;;;;8.45;99.85;100080.28;5036387;28;20123;-83
2020/12/24 04:53:19;;;;;;;15.30;10.45;;;;;;;8.71;100.00;100130.56;5051076;28;20384;-84
2020/12/24 04:55:45;;;;;;;18.80;12.88;;;;;;;8.77;99.85;100127.41;5041650;28;20025;-83
2020/12/24 04:58:11;;;;;;;19.20;12.65;;;;;;;8.39;99.72;100062.06;5062298;28;20054;-83
2020/12/24 05:00:39;;;;;;;16.30;11.73;;;;;;;8.78;99.84;100130.94;5045915;28;20119;-84
2020/12/24 05:03:09;;;;;;;22.05;12.75;;;;;;;8.34;99.17;100066.94;5063352;28;20028;-83
2020/12/24 05:05:39;;;;;;;16.05;11.73;;;;;;;8.44;99.22;100071.41;5040695;28;20024;-84
2020/12/24 05:08:06;;;;;;;18.23;12.48;;;;;;;8.52;99.11;100090.31;5053424;28;20027;-84
2020/12/24 05:10:33;;;;;;;18.00;12.10;;;;;;;8.63;98.83;100097.44;5071326;28;20043;-83
2020/12/24 05:12:59;;;;;;;17.65;12.55;;;;;;;8.52;99.12;100082.28;5065463;28;20577;-83
2020/12/24 05:15:30;;;;;;;19.27;12.63;;;;;;;8.73;98.97;100109.06;5066980;28;20024;-84
2020/12/24 05:18:12;;;;;;;17.02;12.57;;;;;;;8.65;99.05;100095.50;5052129;28;20400;-83
2020/12/24 05:20:39;;;;;;;25.25;13.85;;;;;;;8.31;98.88;100043.13;5062513;28;20035;-83
2020/12/24 05:23:15;;;;;;;17.10;12.23;;;;;;;8.69;99.21;100105.81;5043260;28;20031;-84
2020/12/24 05:25:41;;;;;;;16.10;11.68;;;;;;;8.53;99.36;100077.81;5047546;28;20055;-83
2020/12/24 05:28:07;;;;;;;20.27;12.57;;;;;;;8.61;99.16;100092.22;5062027;28;20051;-82
2020/12/24 05:30:34;;;;;;;19.70;12.68;;;;;;;8.71;99.08;100106.50;5067435;28;20044;-84
2020/12/24 05:33:00;;;;;;;21.13;13.20;;;;;;;8.71;99.54;100105.69;5056875;28;20041;-84
2020/12/24 05:35:26;;;;;;;19.67;12.85;;;;;;;8.70;99.36;100101.28;5062706;28;20028;-83
2020/12/24 05:37:53;;;;;;;20.30;13.90;;;;;;;8.60;99.55;100081.66;5064437;28;20069;-84
2020/12/24 05:40:26;;;;;;;21.95;13.80;;;;;;;8.45;99.37;100053.56;5066248;28;20036;-84
2020/12/24 05:43:00;;;;;;;19.85;12.35;;;;;;;8.78;99.75;100102.34;5053677;28;20035;-84
2020/12/24 05:45:28;;;;;;;20.23;13.55;;;;;;;8.70;99.62;100078.09;5067298;28;20028;-84
2020/12/24 05:48:11;;;;;;;19.40;12.40;;;;;;;8.66;99.10;100049.06;5049289;28;20553;-83
2020/12/24 05:50:38;;;;;;;21.52;12.82;;;;;;;8.60;98.98;100033.53;5063733;28;20024;-83
2020/12/24 05:53:11;;;;;;;21.58;13.32;;;;;;;8.90;98.59;100079.94;5047177;28;20040;-84
2020/12/24 05:55:39;;;;;;;20.25;13.07;;;;;;;8.29;98.37;99975.66;5054977;28;20477;-83
2020/12/24 05:58:07;;;;;;;19.15;13.52;;;;;;;8.54;98.26;100012.66;5044891;28;20028;-84
2020/12/24 06:00:39;;;;;;;20.75;13.80;;;;;;;8.73;98.35;100042.22;5046876;28;20450;-84
2020/12/24 06:03:12;;;;;;;20.30;14.07;;;;;;;8.78;98.38;100061.41;5040612;28;20031;-84
2020/12/24 06:06:01;;;;;;;19.55;13.65;;;;;;;8.93;97.92;100073.47;5045676;28;20078;-83
2020/12/24 06:08:29;;;;;;;20.55;14.07;;;;;;;8.94;98.04;100076.00;5064072;28;20111;-83
2020/12/24 06:11:06;;;;;;;20.50;12.68;;;;;;;8.86;97.61;100061.59;5061421;28;20044;-84
2020/12/24 06:13:38;;;;;;;19.60;13.43;;;;;;;8.83;97.46;100053.81;5060403;28;20037;-83
2020/12/24 06:16:05;;;;;;;18.88;13.27;;;;;;;8.91;97.65;100073.59;5061882;28;20029;-84
2020/12/24 06:18:33;;;;;;;20.83;14.10;;;;;;;8.68;97.47;100031.09;5046400;28;20434;-83
2020/12/24 06:21:00;;;;;;;19.83;12.80;;;;;;;8.73;97.51;100034.19;5049694;28;20024;-83
2020/12/24 06:23:30;;;;;;;22.42;14.05;;;;;;;8.79;97.56;100047.91;5051779;28;20077;-83
2020/12/24 06:26:00;;;;;;;21.98;13.38;;;;;;;8.81;97.46;100045.09;5048163;28;20081;-83
2020/12/24 06:28:28;;;;;;;22.63;14.70;;;;;;;8.68;97.46;100028.41;5059631;28;20063;-83
2020/12/24 06:30:58;;;;;;;20.85;13.88;;;;;;;8.78;97.16;100037.34;5041076;28;20396;-82
2020/12/24 06:33:29;;;;;;;22.05;14.32;;;;;;;8.77;97.38;100039.16;5055165;28;20400;-82
2020/12/24 06:35:55;;;;;;;23.90;14.40;;;;;;;8.75;97.26;100032.25;5042205;28;20028;-83
2020/12/24 06:38:46;;;;;;;30.05;14.30;;;;;;;8.78;97.17;100035.50;5048070;28;20041;-83
2020/12/24 06:41:24;;;;;;;22.63;14.27;;;;;;;8.79;96.96;100033.69;5038483;28;20031;-83
2020/12/24 06:43:49;;;;;;;21.52;13.88;;;;;;;8.78;97.39;100026.66;5040585;28;20496;-84
2020/12/24 06:46:15;;;;;;;26.02;15.43;;;;;;;8.46;97.27;99973.25;5040840;28;20064;-84
2020/12/24 06:48:41;;;;;;;25.42;14.68;;;;;;;8.96;97.05;100058.00;5059458;28;20036;-83
2020/12/24 06:51:06;;;;;;;20.52;13.45;;;;;;;8.86;96.84;100038.38;5062213;28;20079;-82
2020/12/24 06:53:39;;;;;;;21.58;13.57;;;;;;;8.93;96.86;100042.22;5051200;28;20072;-83
2020/12/24 06:56:13;;;;;;;25.65;14.48;;;;;;;9.00;96.44;100050.59;5049477;28;20519;-83
2020/12/24 06:58:44;;;;;;;23.13;14.30;;;;;;;8.86;96.59;100019.66;5046916;28;20602;-82
2020/12/24 07:01:19;;;;;;;24.33;15.13;;;;;;;9.04;96.70;100044.00;5045612;28;20071;-81
2020/12/24 07:03:45;;;;;;;19.98;13.20;;;;;;;8.97;96.44;100026.78;5062290;28;20439;-81
2020/12/24 07:06:11;;;;;;;22.30;14.40;;;;;;;9.11;96.24;100042.47;5046381;28;20028;-81
2020/12/24 07:08:46;;;;;;;23.63;14.20;;;;;;;9.14;96.17;100047.56;5046423;28;20503;-81
2020/12/24 07:11:12;;;;;;;23.33;13.45;;;;;;;9.15;95.70;100051.94;5059454;28;20530;-82
2020/12/24 07:13:43;;;;;;;20.52;13.80;;;;;;;9.05;96.22;100043.88;5046560;28;20036;-81
2020/12/24 07:16:10;;;;;;;21.13;13.52;;;;;;;9.04;95.74;100026.13;5060829;28;20049;-81
2020/12/24 07:18:38;;;;;;;20.67;12.70;;;;;;;9.22;95.40;100058.44;5050428;28;20039;-81
2020/12/24 07:21:06;;;;;;;19.17;12.38;;;;;;;8.69;95.45;99960.59;5045084;28;20372;-81
2020/12/24 07:23:34;;;;;;;19.65;12.15;;;;;;;9.25;95.33;100044.81;5046454;28;20078;-81
2020/12/24 07:26:01;;;;;;;18.85;12.45;;;;;;;9.26;95.17;100042.00;5044507;28;20039;-81
2020/12/24 07:28:29;;;;;;;20.52;12.40;;;;;;;9.18;95.09;100020.41;5043917;28;20031;-81
2020/12/24 07:30:59;;;;;;;20.58;13.48;;;;;;;9.41;95.14;100047.84;5063195;28;20114;-82
2020/12/24 07:40:09;;;;;;;20.70;11.85;;;;;;;9.22;93.65;100000.44;4988739;28;20074;-81
2020/12/24 07:42:35;;;;;;;20.67;13.00;;;;;;;9.56;93.70;100059.91;4969472;28;20057;-81
2020/12/24 07:45:00;;;;;;;16.65;11.63;;;;;;;9.33;93.60;99992.31;5011827;28;20041;-80
2020/12/24 07:47:26;;;;;;;23.90;12.30;;;;;;;9.12;93.55;99948.72;5021947;28;20033;-81
2020/12/24 07:49:52;;;;;;;20.58;12.10;;;;;;;9.68;93.46;100032.03;5019917;28;20025;-81
2020/12/24 07:52:18;;;;;;;21.73;12.27;;;;;;;8.96;92.57;99904.72;5022642;28;20036;-81
2020/12/24 07:54:43;;;;;;;17.95;11.52;;;;;;;9.30;92.40;99959.63;5024336;28;20033;-81
2020/12/24 07:57:09;;;;;;;18.13;11.38;;;;;;;9.62;92.72;100002.28;5021681;28;20494;-82
2020/12/24 07:59:34;;;;;;;18.67;12.20;;;;;;;9.29;91.96;99952.59;5019642;28;21220;-82
2020/12/24 08:02:06;;;;;;;19.27;12.40;;;;;;;9.82;92.06;100039.69;5025167;28;20039;-81
2020/12/24 08:04:31;;;;;;;20.38;11.52;;;;;;;9.82;92.10;100034.34;5018966;28;20038;-81
2020/12/24 08:06:57;;;;;;;17.85;11.38;;;;;;;9.87;92.13;100032.06;5022094;28;20551;-81
2020/12/24 08:09:22;;;;;;;20.67;11.85;;;;;;;9.62;91.86;99986.22;5021988;28;20021;-81
2020/12/24 08:11:53;;;;;;;19.40;12.55;;;;;;;9.95;91.56;100032.25;5022043;28;20037;-81
2020/12/24 08:14:23;;;;;;;18.25;12.25;;;;;;;9.81;91.67;100003.19;5026139;28;20109;-81
2020/12/24 08:16:49;;;;;;;19.73;12.57;;;;;;;9.62;91.33;99962.13;5036423;28;20030;-81
2020/12/24 08:20:06;;;;;;;20.27;12.30;;;;;;;9.98;91.21;100017.72;5027248;28;20131;-81
2020/12/24 08:22:46;;;;;;;21.38;12.23;;;;;;;9.68;91.13;99959.75;4968912;28;20027;-82
2020/12/24 08:25:16;;;;;;;19.73;12.77;;;;;;;10.04;90.99;100004.63;5024472;28;20034;-82
2020/12/24 08:27:43;;;;;;;20.30;12.60;;;;;;;9.90;91.00;99986.25;5022163;28;20529;-81
2020/12/24 08:30:09;;;;;;;19.52;12.00;;;;;;;10.04;90.70;100004.63;5024107;28;20049;-81
2020/12/24 08:32:37;;;;;;;19.83;12.43;;;;;;;9.93;91.03;99974.44;5022959;28;20183;-81
2020/12/24 08:35:14;;;;;;;18.35;12.25;;;;;;;9.99;90.80;99973.91;5029467;28;20501;-81
2020/12/24 08:37:39;;;;;;;20.05;12.43;;;;;;;10.09;90.16;99991.69;5024904;28;20033;-81
2020/12/24 08:40:24;;;;;;;17.63;11.73;;;;;;;9.84;89.78;99940.47;5043568;28;20045;-81
2020/12/24 08:42:52;;;;;;;18.42;12.07;;;;;;;9.89;89.91;99935.50;5047653;28;20025;-81
2020/12/24 08:45:18;;;;;;;20.70;13.43;;;;;;;9.88;89.88;99932.00;5040971;28;20081;-81
2020/12/24 08:47:44;;;;;;;18.00;11.95;;;;;;;10.18;89.75;99985.50;5045752;28;20032;-81
2020/12/24 08:50:09;;;;;;;17.80;11.32;;;;;;;10.08;89.67;99960.53;5041679;28;20037;-81
2020/12/24 08:52:38;;;;;;;18.65;12.00;;;;;;;10.21;89.31;99974.50;5044306;28;20024;-81
2020/12/24 08:55:07;;;;;;;19.85;12.05;;;;;;;9.88;89.09;99918.63;5045006;28;20037;-82
2020/12/24 08:57:33;;;;;;;16.73;11.73;;;;;;;10.39;88.69;99988.91;5043824;28;20031;-82
2020/12/24 09:00:01;;;;;;;21.02;11.93;;;;;;;10.26;89.12;99958.00;5077142;28;20472;-81
2020/12/24 09:02:32;;;;;;;17.05;11.20;;;;;;;10.21;88.72;99954.88;5045316;28;20679;-81
2020/12/24 09:04:58;;;;;;;18.90;11.07;;;;;;;10.12;88.78;99932.47;5060651;28;20020;-81
2020/12/24 09:07:42;;;;;;;20.50;10.55;;;;;;;10.33;88.61;99951.06;5045058;28;20071;-81
2020/12/24 09:10:10;;;;;;;16.13;10.27;;;;;;;10.34;88.51;99940.22;5047768;28;20090;-80
2020/12/24 09:12:38;;;;;;;18.65;10.73;;;;;;;10.51;88.40;99960.94;5043954;28;20111;-81
2020/12/24 09:15:09;;;;;;;13.90;9.50;;;;;;;10.10;88.28;99896.94;5042682;28;20074;-81
2020/12/24 09:17:36;;;;;;;15.10;10.00;;;;;;;9.67;88.49;99804.59;5041012;28;20433;-82
2020/12/24 09:20:07;;;;;;;18.65;9.77;;;;;;;10.50;88.08;99932.44;5041865;28;20108;-81
2020/12/24 09:22:33;;;;;;;15.48;10.00;;;;;;;10.62;88.37;99941.16;5043963;28;20030;-81
2020/12/24 09:24:59;;;;;;;18.23;9.90;;;;;;;10.65;87.82;99949.78;5060990;28;20017;-81
2020/12/24 09:27:24;;;;;;;14.00;9.55;;;;;;;9.97;88.14;99826.69;5039674;28;20033;-81
2020/12/24 09:29:50;;;;;;;14.82;10.05;;;;;;;10.10;87.56;99838.00;5044084;28;20066;-84
2020/12/24 09:32:16;;;;;;;15.23;9.52;;;;;;;10.19;88.02;99847.84;5047043;28;20025;-83
2020/12/24 09:34:41;;;;;;;14.48;10.00;;;;;;;10.53;88.32;99897.28;5051772;28;20643;-84
2020/12/24 09:37:06;;;;;;;12.63;8.63;;;;;;;10.14;87.96;99823.31;5058905;28;20083;-84
2020/12/24 09:39:32;;;;;;;15.75;10.35;;;;;;;10.74;87.92;99911.34;5047597;28;20067;-83
2020/12/24 09:41:58;;;;;;;23.23;13.95;;;;;;;10.51;87.82;99864.41;5044296;28;20120;-84
2020/12/24 09:44:23;;;;;;;17.95;11.73;;;;;;;10.64;87.80;99875.66;5043321;28;20054;-84
2020/12/24 09:46:49;;;;;;;13.23;8.77;;;;;;;10.49;88.12;99853.00;5062096;28;20024;-84
2020/12/24 09:49:16;;;;;;;12.77;8.25;;;;;;;10.77;88.24;99886.91;5054890;28;20025;-84
2020/12/24 09:51:42;;;;;;;12.90;8.40;;;;;;;10.89;88.30;99896.47;5072217;28;20043;-84
2020/12/24 09:54:08;;;;;;;14.70;9.35;;;;;;;10.77;87.89;99872.69;5066172;28;20492;-83
2020/12/24 09:56:34;;;;;;;15.27;8.52;;;;;;;10.27;87.72;99786.34;5047456;28;20061;-84
2020/12/24 09:59:00;;;;;;;14.68;8.80;;;;;;;10.73;87.78;99847.13;5061089;28;20046;-84
2020/12/24 10:01:26;;;;;;;13.05;8.55;;;;;;;10.71;87.52;99833.84;5061944;28;20032;-84
2020/12/24 10:03:52;;;;;;;12.60;8.13;;;;;;;10.91;88.21;99862.31;5050476;28;20538;-84
2020/12/24 10:06:18;;;;;;;11.75;7.68;;;;;;;10.87;87.70;99852.84;5051898;28;20052;-84
2020/12/24 10:08:43;;;;;;;12.98;7.78;;;;;;;10.22;88.38;99732.31;5046423;28;20102;-83
2020/12/24 10:11:15;;;;;;;14.05;8.60;;;;;;;10.79;88.31;99819.72;5047826;28;20085;-84
2020/12/24 10:13:41;;;;;;;10.77;7.55;;;;;;;11.12;88.17;99868.25;5069049;28;20079;-84
2020/12/24 10:16:07;;;;;;;10.38;7.65;;;;;;;10.81;88.45;99797.09;5061088;28;20032;-84
2020/12/24 10:18:32;;;;;;;13.50;8.07;;;;;;;10.72;88.22;99775.69;5045704;28;20021;-84
2020/12/24 10:20:58;;;;;;;9.45;6.97;;;;;;;11.13;88.05;99821.63;5050483;28;20056;-84
2020/12/24 10:23:23;;;;;;;11.73;7.25;;;;;;;11.26;87.86;99845.47;5068723;28;20055;-84
2020/12/24 10:25:49;;;;;;;11.38;7.63;;;;;;;11.16;88.27;99804.41;5046084;28;20025;-84
2020/12/24 10:28:14;;;;;;;10.80;7.15;;;;;;;11.37;87.53;99837.19;5050525;28;20024;-83
2020/12/24 10:30:42;;;;;;;11.70;7.60;;;;;;;11.39;87.52;99827.97;5047111;28;20036;-84
2020/12/24 10:33:07;;;;;;;13.30;7.68;;;;;;;11.30;87.42;99803.88;5045544;28;20025;-84
2020/12/24 10:35:35;;;;;;;10.48;6.93;;;;;;;11.43;87.63;99815.09;5064505;28;20074;-84
2020/12/24 10:38:02;;;;;;;13.27;7.55;;;;;;;11.49;87.28;99814.50;5043352;28;20112;-84
2020/12/24 10:40:27;;;;;;;10.63;7.20;;;;;;;11.22;87.36;99767.06;5044608;28;20063;-84
2020/12/24 10:42:53;;;;;;;9.55;6.88;;;;;;;11.31;87.18;99768.84;5062501;28;20021;-83
2020/12/24 10:45:18;;;;;;;9.73;7.07;;;;;;;11.51;87.28;99789.16;5062448;28;20439;-84
2020/12/24 10:47:46;;;;;;;9.18;6.45;;;;;;;11.26;87.10;99732.72;5048410;28;20074;-84
2020/12/24 10:50:13;;;;;;;10.38;6.55;;;;;;;11.50;86.97;99760.63;5046493;28;20025;-84
2020/12/24 10:52:38;;;;;;;13.18;7.22;;;;;;;11.10;86.91;99690.44;5043372;28;20037;-84
2020/12/24 10:55:04;;;;;;;9.30;6.78;;;;;;;11.55;86.60;99752.13;5044369;28;20384;-84
2020/12/24 10:57:29;;;;;;;8.65;6.72;;;;;;;11.47;86.62;99736.78;5045529;28;20479;-84
2020/12/24 10:59:55;;;;;;;10.80;7.15;;;;;;;11.78;87.05;99793.66;5043462;28;20033;-84
2020/12/24 11:02:20;;;;;;;9.77;6.43;;;;;;;11.60;86.62;99754.34;5044205;28;20032;-84
2020/12/24 11:04:45;;;;;;;13.63;8.32;;;;;;;11.44;87.04;99710.22;5062528;28;20052;-84
2020/12/24 11:07:11;;;;;;;10.85;6.82;;;;;;;11.71;86.94;99743.38;5061261;28;20028;-85
2020/12/24 11:09:36;;;;;;;9.20;5.93;;;;;;;11.42;87.03;99687.22;5062013;28;20025;-83
2020/12/24 11:12:03;;;;;;;7.35;5.53;;;;;;;11.71;87.17;99735.31;5039008;28;20096;-85
2020/12/24 11:14:29;;;;;;;9.50;6.03;;;;;;;11.74;87.50;99727.81;5039997;28;20036;-84
2020/12/24 11:16:58;;;;;;;11.73;5.72;;;;;;;11.57;87.39;99701.75;5041723;28;20032;-84
2020/12/24 11:19:24;;;;;;;8.40;6.05;;;;;;;11.92;86.81;99747.41;5042355;28;20080;-82
2020/12/24 11:21:50;;;;;;;8.27;5.47;;;;;;;11.74;87.10;99717.06;5055304;28;20037;-83
2020/12/24 11:24:15;;;;;;;9.90;5.63;;;;;;;11.83;86.50;99718.78;5058577;28;20033;-84
2020/12/24 11:26:41;;;;;;;7.75;5.60;;;;;;;11.60;86.41;99673.78;5041739;28;20037;-84
2020/12/24 11:29:08;;;;;;;8.45;5.30;;;;;;;11.91;86.86;99723.38;5040231;28;20035;-84